Old Saybrook, CT

10:19 AM EST on November 26, 2014 (GMT -0500)
Ferry Point Old Saybrook | Change Station
CLOSE
Current Station
Personal Weather Station
Location: Old Saybrook, CT
Elevation: 36 ft
Nearby Weather Stations

Elev 36 ft 41.31 °N, 72.35 °W | Updated 19 seconds ago

Rain
Rain
38.8 °F
Feels Like 36 °F
N
3.8
Wind Variable Wind from North
Gusts 6.9 mph

Today
High -- | Low -- °F
--% Chance of Precip.
Yesterday
High -- | Low -- °F
Precip. -- in
6:50 AM 4:22 PM
Waxing Crescent, 20% visible
Pressure 30.15 in
Visibility 1.5 miles
Clouds Mostly Cloudy 200 ft
Overcast 800 ft
Windchill 36 °F
Dew Point 39 °F
Humidity 99%
Rainfall 0.00 in
Snow Depth Not available.
UV 1 out of 12
Pollen .10 out of 12
Air Quality Not available.
Flu Activity Not available.
METAR KSNC 261515Z AUTO 36007KT 1 1/2SM +RA BKN002 OVC008 02/01 A3015 RMK AO2 P0006

More Conditions Fewer Conditions

Pressure 30.15 in
Visibility 1.5 miles
Clouds Mostly Cloudy 200 ft
Overcast 800 ft
Windchill 36 °F
Dew Point 39 °F
Humidity 99%
Rainfall 0.00 in
Snow Depth Not available.
UV 1 out of 12
Pollen .10 out of 12
Air Quality Not available.
Flu Activity Not available.
METAR KSNC 261515Z AUTO 36007KT 1 1/2SM +RA BKN002 OVC008 02/01 A3015 RMK AO2 P0006

More Conditions Fewer Conditions

10-Day Weather Forecast

Almanac

Astronomy

Nov. 26, 2014 Rise Set
Actual Time
Civil Twilight
Nautical Twilight
Astronomical Twilight
Moon
Length of Visible Light
Length of Day
Tomorrow will be .
, % of the Moon is Illuminated

Today's Extremes

State Highs State Lows

Community

WunderPhotos

Upload Photos

1,773,771 photos uploaded!

WunderBlogs® & News

Nearby

Air Quality

  Air Quality AQ Index Pollutant
Not available.

Snow Depth

Station Depth Elevation

Earthquake Activity

City Distance Mag. Time & Date
Minimum magnitude displayed is 2.5.

Coastal Water Temperatures

Place Temperature

Nearby Weather Stations